Terminal Aerodrome Forecast
Issued by NWS Jackson, MS

Home | Current Version | Previous Version | Text Only | Print | Product List | Glossary On
Versions: 1 2 3 4 5 6 7 8 9 10 11 12 13 14 15 16
054
FTUS44 KJAN 030536
TAFHBG
TAF
KHBG 030536Z 0306/0406 VRB03KT P6SM -RA OVC100
     FM030900 09005KT P6SM -RA OVC050
     FM032000 08011G17KT 6SM -RA OVC035=

USA.gov is the U.S. government's official web portal to all federal, state and local government web resources and services.